Time;durP1;ratioP1;P1;durP2;ratioP2;P2;SDS_P1;SDS_P2;PMS_P1;PMS_P2;Temp;Humidity;BMP_temperature;BMP_pressure;BME280_temperature;BME280_humidity;BME280_pressure;Samples;Min_cycle;Max_cycle;Signal;HPM_P1;HPM_P2
2023/04/11 00:00:53;;;;;;;24.83;16.70;;;;;;;;;;4316497;32;319393;-84
2023/04/11 00:03:21;;;;;;;21.90;17.67;;;;;;;;;;4321169;32;319200;-83
2023/04/11 00:05:47;;;;;;;33.70;20.20;;;;;;;;;;4323626;32;319878;-82
2023/04/11 00:08:14;;;;;;;23.80;20.40;;;;;;;;;;4334807;32;319094;-84
2023/04/11 00:10:41;;;;;;;24.17;16.97;;;;;;;;;;4315383;32;319407;-84
2023/04/11 00:13:09;;;;;;;20.03;16.63;;;;;;;;;;4367891;32;319557;-82
2023/04/11 00:15:39;;;;;;;19.83;16.20;;;;;;;;;;4328799;32;335377;-78
2023/04/11 00:18:07;;;;;;;19.50;15.77;;;;;;;;;;4334751;32;332655;-81
2023/04/11 00:20:34;;;;;;;19.07;15.53;;;;;;;;;;4344641;32;319435;-80
2023/04/11 00:23:01;;;;;;;18.40;14.17;;;;;;;;;;4329424;32;319419;-84
2023/04/11 00:25:29;;;;;;;16.10;13.90;;;;;;;;;;4330750;32;319304;-83
2023/04/11 00:27:56;;;;;;;15.90;12.13;;;;;;;;;;4381405;32;319829;-81
2023/04/11 00:30:22;;;;;;;17.80;14.67;;;;;;;;;;4336258;32;319416;-83
2023/04/11 00:32:49;;;;;;;15.77;13.07;;;;;;;;;;4327350;32;319296;-85
2023/04/11 00:35:17;;;;;;;18.00;13.33;;;;;;;;;;4333738;32;319609;-82
2023/04/11 00:37:45;;;;;;;15.47;13.77;;;;;;;;;;4314640;32;319169;-82
2023/04/11 00:40:13;;;;;;;15.27;13.03;;;;;;;;;;4321891;32;319410;-83
2023/04/11 00:42:40;;;;;;;15.43;12.90;;;;;;;;;;4345467;32;319364;-84
2023/04/11 00:45:07;;;;;;;14.63;13.13;;;;;;;;;;4356436;32;319666;-82
2023/04/11 00:47:35;;;;;;;14.57;12.90;;;;;;;;;;4372190;32;320264;-84
2023/04/11 00:50:02;;;;;;;13.87;12.43;;;;;;;;;;4331664;32;319409;-83
2023/04/11 00:52:31;;;;;;;15.57;12.30;;;;;;;;;;4327490;32;319387;-85
2023/04/11 00:54:58;;;;;;;14.07;12.57;;;;;;;;;;4317242;32;319261;-80
2023/04/11 00:57:25;;;;;;;12.97;11.60;;;;;;;;;;4326619;32;320514;-79
2023/04/11 00:59:52;;;;;;;14.43;12.40;;;;;;;;;;4310220;32;319671;-83
2023/04/11 01:02:19;;;;;;;13.67;12.33;;;;;;;;;;4326736;32;319770;-81
2023/04/11 01:04:46;;;;;;;17.63;12.03;;;;;;;;;;4338866;32;319425;-84
2023/04/11 01:07:13;;;;;;;12.93;11.57;;;;;;;;;;4353890;32;319565;-81
2023/04/11 01:09:42;;;;;;;13.40;12.00;;;;;;;;;;4313597;32;350381;-82
2023/04/11 01:12:11;;;;;;;12.53;11.33;;;;;;;;;;4324045;32;319424;-84
2023/04/11 01:14:40;;;;;;;13.60;12.20;;;;;;;;;;4320948;32;319391;-80
2023/04/11 01:17:11;;;;;;;13.87;12.37;;;;;;;;;;4364586;32;319165;-84
2023/04/11 01:19:38;;;;;;;12.97;11.57;;;;;;;;;;4332728;32;359746;-81
2023/04/11 01:22:05;;;;;;;15.07;11.20;;;;;;;;;;4327660;32;319713;-85
2023/04/11 01:24:33;;;;;;;13.23;11.93;;;;;;;;;;4320326;32;319320;-81
2023/04/11 01:27:00;;;;;;;14.87;12.43;;;;;;;;;;4349781;32;418422;-83
2023/04/11 01:29:27;;;;;;;16.40;13.57;;;;;;;;;;4352156;32;319700;-85
2023/04/11 01:31:54;;;;;;;15.27;12.90;;;;;;;;;;4318322;32;319448;-82
2023/04/11 01:34:22;;;;;;;15.90;13.40;;;;;;;;;;4325219;32;319598;-81
2023/04/11 01:36:49;;;;;;;14.63;13.13;;;;;;;;;;4318020;32;319342;-82
2023/04/11 01:39:16;;;;;;;13.10;11.60;;;;;;;;;;4325388;32;319392;-81
2023/04/11 01:41:46;;;;;;;14.10;12.27;;;;;;;;;;4318807;32;319319;-84
2023/04/11 01:44:13;;;;;;;15.87;12.00;;;;;;;;;;4322684;32;319221;-83
2023/04/11 01:46:40;;;;;;;12.70;11.20;;;;;;;;;;4311376;32;319377;-78
2023/04/11 01:49:07;;;;;;;14.17;12.03;;;;;;;;;;4328540;32;319735;-82
2023/04/11 01:51:35;;;;;;;17.57;11.23;;;;;;;;;;4321638;32;319314;-80
2023/04/11 01:54:02;;;;;;;12.90;11.17;;;;;;;;;;4321427;32;318878;-84
2023/04/11 01:56:28;;;;;;;14.13;10.67;;;;;;;;;;4345896;32;318653;-85
2023/04/11 01:58:57;;;;;;;12.17;10.80;;;;;;;;;;4328462;32;319234;-85
2023/04/11 02:01:25;;;;;;;12.30;11.00;;;;;;;;;;4333975;32;319513;-84
2023/04/11 02:03:51;;;;;;;13.83;9.80;;;;;;;;;;4323178;32;319463;-81
2023/04/11 02:06:18;;;;;;;13.70;11.23;;;;;;;;;;4367048;32;318719;-85
2023/04/11 02:08:45;;;;;;;14.27;11.10;;;;;;;;;;4318556;32;319554;-84
2023/04/11 02:11:12;;;;;;;16.70;12.27;;;;;;;;;;4323604;32;325754;-84
2023/04/11 02:13:39;;;;;;;20.07;13.90;;;;;;;;;;4313090;32;319512;-81
2023/04/11 02:16:10;;;;;;;14.57;13.07;;;;;;;;;;4333049;32;344751;-85
2023/04/11 02:18:37;;;;;;;11.40;10.17;;;;;;;;;;4358843;32;319604;-84
2023/04/11 02:21:05;;;;;;;15.50;10.63;;;;;;;;;;4329731;32;319586;-80
2023/04/11 02:23:32;;;;;;;9.20;8.37;;;;;;;;;;4334400;32;349418;-85
2023/04/11 02:25:59;;;;;;;8.87;7.97;;;;;;;;;;4320955;32;417969;-85
2023/04/11 02:28:26;;;;;;;10.00;8.83;;;;;;;;;;4339981;32;317194;-80
2023/04/11 02:30:53;;;;;;;12.87;9.43;;;;;;;;;;4333668;32;318251;-84
2023/04/11 02:33:22;;;;;;;9.93;8.93;;;;;;;;;;4338069;32;348600;-83
2023/04/11 02:35:49;;;;;;;10.53;9.30;;;;;;;;;;4324592;32;317096;-79
2023/04/11 02:38:16;;;;;;;13.73;11.00;;;;;;;;;;4328812;32;323785;-79
2023/04/11 02:40:42;;;;;;;18.83;14.53;;;;;;;;;;4318580;32;319427;-79
2023/04/11 02:43:09;;;;;;;14.37;12.03;;;;;;;;;;4368876;32;319350;-85
2023/04/11 02:45:36;;;;;;;18.30;12.47;;;;;;;;;;4328776;32;319379;-80
2023/04/11 02:48:03;;;;;;;12.77;10.77;;;;;;;;;;4331233;32;318799;-84
2023/04/11 02:50:31;;;;;;;13.10;11.10;;;;;;;;;;4355785;32;358806;-78
2023/04/11 02:52:58;;;;;;;12.03;10.33;;;;;;;;;;4305866;32;419616;-85
2023/04/11 02:55:25;;;;;;;11.40;10.03;;;;;;;;;;4330398;32;319198;-78
2023/04/11 02:57:54;;;;;;;12.80;10.67;;;;;;;;;;4319617;32;319323;-79
2023/04/11 03:00:21;;;;;;;11.40;10.17;;;;;;;;;;4331105;32;319336;-76
2023/04/11 03:02:48;;;;;;;12.50;10.73;;;;;;;;;;4333844;32;318582;-82
2023/04/11 03:05:15;;;;;;;14.43;11.60;;;;;;;;;;4338087;32;319055;-82
2023/04/11 03:07:45;;;;;;;13.03;11.57;;;;;;;;;;4333250;32;319130;-80
2023/04/11 03:10:12;;;;;;;12.83;10.37;;;;;;;;;;4323972;32;319315;-81
2023/04/11 03:12:39;;;;;;;13.23;9.73;;;;;;;;;;4339970;32;337943;-83
2023/04/11 03:15:06;;;;;;;18.50;12.43;;;;;;;;;;4354544;32;318301;-78
2023/04/11 03:17:34;;;;;;;16.60;13.20;;;;;;;;;;4369521;32;319111;-82
2023/04/11 03:20:00;;;;;;;16.97;13.63;;;;;;;;;;4332346;32;319194;-82
2023/04/11 03:22:27;;;;;;;20.67;14.17;;;;;;;;;;4343815;32;319291;-80
2023/04/11 03:24:55;;;;;;;19.83;14.93;;;;;;;;;;4349735;32;318565;-80
2023/04/11 03:27:22;;;;;;;27.17;20.87;;;;;;;;;;4372200;32;318708;-80
2023/04/11 03:29:49;;;;;;;29.50;21.93;;;;;;;;;;4327569;32;321653;-79
2023/04/11 03:32:15;;;;;;;27.70;19.63;;;;;;;;;;4326869;32;318588;-79
2023/04/11 03:34:42;;;;;;;25.57;20.70;;;;;;;;;;4312636;32;319647;-79
2023/04/11 03:37:09;;;;;;;32.77;22.90;;;;;;;;;;4330138;32;319413;-78
2023/04/11 03:39:36;;;;;;;28.70;21.70;;;;;;;;;;4315572;32;318700;-79
2023/04/11 03:42:04;;;;;;;31.60;22.37;;;;;;;;;;4333105;32;319223;-82
2023/04/11 03:44:31;;;;;;;30.33;22.13;;;;;;;;;;4375749;32;318427;-78
2023/04/11 03:46:57;;;;;;;26.57;20.40;;;;;;;;;;4341763;32;319430;-80
2023/04/11 03:49:25;;;;;;;27.47;19.80;;;;;;;;;;4321540;32;319204;-79
2023/04/11 03:51:52;;;;;;;22.37;17.80;;;;;;;;;;4318631;32;319290;-80
2023/04/11 03:54:19;;;;;;;20.87;16.37;;;;;;;;;;4322113;32;319180;-80
2023/04/11 03:56:46;;;;;;;17.87;15.97;;;;;;;;;;4320546;32;319163;-80
2023/04/11 03:59:14;;;;;;;19.77;13.90;;;;;;;;;;4336143;32;319350;-80
2023/04/11 04:01:41;;;;;;;18.90;15.83;;;;;;;;;;4314714;32;342299;-80
2023/04/11 04:04:08;;;;;;;19.30;16.37;;;;;;;;;;4324865;32;319133;-79
2023/04/11 04:06:34;;;;;;;20.13;17.40;;;;;;;;;;4348669;32;319223;-80
2023/04/11 04:09:02;;;;;;;20.80;17.93;;;;;;;;;;4363899;32;319169;-79
2023/04/11 04:11:30;;;;;;;25.10;18.37;;;;;;;;;;4322234;32;318952;-77
2023/04/11 04:14:01;;;;;;;22.80;18.23;;;;;;;;;;4378006;32;319514;-77
2023/04/11 04:16:29;;;;;;;23.37;18.60;;;;;;;;;;4331557;32;318843;-78
2023/04/11 04:18:55;;;;;;;18.37;16.13;;;;;;;;;;4358753;32;319639;-80
2023/04/11 04:21:25;;;;;;;17.57;14.63;;;;;;;;;;4322177;32;319040;-79
2023/04/11 04:23:52;;;;;;;22.10;17.80;;;;;;;;;;4324759;32;324697;-80
2023/04/11 04:26:23;;;;;;;21.37;17.43;;;;;;;;;;4330481;32;318838;-79
2023/04/11 04:28:52;;;;;;;22.07;18.10;;;;;;;;;;4312607;32;319656;-78
2023/04/11 04:31:21;;;;;;;23.77;18.73;;;;;;;;;;4321781;32;319588;-78
2023/04/11 04:33:49;;;;;;;19.40;16.53;;;;;;;;;;4377288;32;319376;-80
2023/04/11 04:36:16;;;;;;;21.23;16.70;;;;;;;;;;4330738;32;319134;-78
2023/04/11 04:38:43;;;;;;;28.17;16.50;;;;;;;;;;4320139;32;334104;-79
2023/04/11 04:41:14;;;;;;;17.20;14.67;;;;;;;;;;4328900;32;319537;-78
2023/04/11 04:43:41;;;;;;;15.33;13.67;;;;;;;;;;4321572;32;319197;-80
2023/04/11 04:46:09;;;;;;;17.97;13.77;;;;;;;;;;4320045;32;319923;-77
2023/04/11 04:48:36;;;;;;;24.87;18.67;;;;;;;;;;4340284;32;319389;-78
2023/04/11 04:51:05;;;;;;;24.20;18.33;;;;;;;;;;4337426;32;319390;-80
2023/04/11 04:53:33;;;;;;;22.27;17.47;;;;;;;;;;4332538;32;319232;-80
2023/04/11 04:56:01;;;;;;;18.33;14.90;;;;;;;;;;4311443;32;419832;-77
2023/04/11 04:58:28;;;;;;;15.97;14.27;;;;;;;;;;4331629;32;319261;-77
2023/04/11 05:00:55;;;;;;;19.77;15.80;;;;;;;;;;4317894;32;319486;-79
2023/04/11 05:03:22;;;;;;;35.03;23.03;;;;;;;;;;4331720;32;319373;-77
2023/04/11 05:05:49;;;;;;;35.47;22.13;;;;;;;;;;4323689;32;319030;-80
2023/04/11 05:08:19;;;;;;;29.40;22.40;;;;;;;;;;4325400;32;318852;-77
2023/04/11 05:10:46;;;;;;;25.00;19.60;;;;;;;;;;4316883;32;319440;-80
2023/04/11 05:13:15;;;;;;;18.90;15.23;;;;;;;;;;4362250;32;319456;-78
2023/04/11 05:15:48;;;;;;;17.43;15.47;;;;;;;;;;4315845;32;319008;-77
2023/04/11 05:18:14;;;;;;;21.83;15.90;;;;;;;;;;4338280;32;319164;-79
2023/04/11 05:20:41;;;;;;;15.40;13.90;;;;;;;;;;4339683;32;319459;-80
2023/04/11 05:23:08;;;;;;;20.33;14.70;;;;;;;;;;4329461;32;319493;-80
2023/04/11 05:25:37;;;;;;;24.07;18.53;;;;;;;;;;4323003;32;319641;-78
2023/04/11 05:28:04;;;;;;;21.57;16.87;;;;;;;;;;4317033;32;318709;-82
2023/04/11 05:30:32;;;;;;;20.57;17.13;;;;;;;;;;4327209;32;319283;-79
2023/04/11 05:33:00;;;;;;;26.80;18.00;;;;;;;;;;4348418;32;418529;-80
2023/04/11 05:35:26;;;;;;;33.77;19.57;;;;;;;;;;4344279;32;319368;-78
2023/04/11 05:37:53;;;;;;;25.33;17.70;;;;;;;;;;4322225;32;319206;-79
2023/04/11 05:40:20;;;;;;;19.07;16.30;;;;;;;;;;4320829;32;319055;-78
2023/04/11 05:42:48;;;;;;;21.30;15.13;;;;;;;;;;4316779;32;319357;-80
2023/04/11 05:45:15;;;;;;;25.30;17.40;;;;;;;;;;4321481;32;335980;-79
2023/04/11 05:47:44;;;;;;;33.00;20.10;;;;;;;;;;4307565;32;343227;-80
2023/04/11 05:50:11;;;;;;;39.03;22.33;;;;;;;;;;4323527;32;319440;-81
2023/04/11 05:52:38;;;;;;;43.20;25.77;;;;;;;;;;4323451;32;319140;-81
2023/04/11 05:55:06;;;;;;;45.37;26.50;;;;;;;;;;4327543;32;318628;-79
2023/04/11 05:57:33;;;;;;;33.63;21.80;;;;;;;;;;4327329;32;318820;-80
2023/04/11 06:00:05;;;;;;;24.27;18.93;;;;;;;;;;4319581;32;419963;-79
2023/04/11 06:02:32;;;;;;;28.83;19.93;;;;;;;;;;4327905;32;319129;-79
2023/04/11 06:05:00;;;;;;;26.13;19.63;;;;;;;;;;4311403;32;418324;-78
2023/04/11 06:07:27;;;;;;;20.27;15.57;;;;;;;;;;4331450;32;318591;-76
2023/04/11 06:09:55;;;;;;;22.87;18.07;;;;;;;;;;4313707;32;319719;-80
2023/04/11 06:12:22;;;;;;;26.57;16.60;;;;;;;;;;4324090;32;318930;-79
2023/04/11 06:14:49;;;;;;;21.13;15.67;;;;;;;;;;4309042;32;319912;-77
2023/04/11 06:17:17;;;;;;;28.77;17.03;;;;;;;;;;4324577;32;318472;-79
2023/04/11 06:19:44;;;;;;;26.23;15.53;;;;;;;;;;4310370;32;319241;-79
2023/04/11 06:22:10;;;;;;;27.30;17.73;;;;;;;;;;4329984;32;319500;-80
2023/04/11 06:24:39;;;;;;;18.73;13.70;;;;;;;;;;4307201;32;337720;-79
2023/04/11 06:27:08;;;;;;;19.67;14.00;;;;;;;;;;4327085;32;319265;-78
2023/04/11 06:32:27;;;;;;;14.20;10.83;;;;;;;;;;4332038;32;319054;-79
2023/04/11 06:34:54;;;;;;;15.33;11.47;;;;;;;;;;4330691;32;318932;-79
2023/04/11 06:37:21;;;;;;;14.00;11.87;;;;;;;;;;4344191;32;319166;-78
2023/04/11 06:39:48;;;;;;;16.97;15.17;;;;;;;;;;4331348;32;319149;-81
2023/04/11 06:42:15;;;;;;;18.00;13.10;;;;;;;;;;4332298;32;319037;-80
2023/04/11 06:44:42;;;;;;;33.80;20.13;;;;;;;;;;4318819;32;319322;-80
2023/04/11 06:47:08;;;;;;;26.17;19.03;;;;;;;;;;4325938;32;318783;-80
2023/04/11 06:49:37;;;;;;;15.10;12.63;;;;;;;;;;4311123;32;384854;-81
2023/04/11 06:52:03;;;;;;;14.20;12.03;;;;;;;;;;4321356;33;318503;-81
2023/04/11 06:54:30;;;;;;;13.10;10.63;;;;;;;;;;4331388;32;319356;-83
2023/04/11 06:56:57;;;;;;;12.67;11.37;;;;;;;;;;4312574;32;319436;-80
2023/04/11 06:59:24;;;;;;;12.97;9.90;;;;;;;;;;4335586;32;319353;-81
2023/04/11 07:01:51;;;;;;;12.70;10.30;;;;;;;;;;4315951;32;318433;-82
2023/04/11 07:04:18;;;;;;;8.90;7.83;;;;;;;;;;4335442;32;318692;-81
2023/04/11 07:06:46;;;;;;;10.40;9.00;;;;;;;;;;4340655;32;317238;-81
2023/04/11 07:09:21;;;;;;;11.80;9.33;;;;;;;;;;4321480;32;317800;-78
2023/04/11 07:11:48;;;;;;;13.50;11.53;;;;;;;;;;4310306;32;342603;-82
2023/04/11 07:14:15;;;;;;;19.77;10.87;;;;;;;;;;4320963;32;319741;-80
2023/04/11 07:16:43;;;;;;;14.53;10.20;;;;;;;;;;4314163;32;319201;-83
2023/04/11 07:19:10;;;;;;;20.87;10.33;;;;;;;;;;4328983;32;319336;-79
2023/04/11 07:21:38;;;;;;;10.93;8.80;;;;;;;;;;4310604;32;319400;-80
2023/04/11 08:07:01;;;;;;;12.57;10.10;;;;;;;;;;4332510;32;317351;-82
2023/04/11 08:09:29;;;;;;;12.53;10.33;;;;;;;;;;4347504;32;318431;-81
2023/04/11 08:11:57;;;;;;;12.20;10.53;;;;;;;;;;4336333;32;319104;-82
2023/04/11 08:14:23;;;;;;;16.13;11.87;;;;;;;;;;4333402;32;325499;-81
2023/04/11 08:16:51;;;;;;;14.60;11.23;;;;;;;;;;4348757;32;318685;-80
2023/04/11 08:19:18;;;;;;;15.23;11.90;;;;;;;;;;4339390;32;318752;-81
2023/04/11 08:21:46;;;;;;;13.97;11.47;;;;;;;;;;4339308;32;319513;-79
2023/04/11 08:24:14;;;;;;;13.37;11.60;;;;;;;;;;4334707;32;319393;-85
2023/04/11 08:26:41;;;;;;;12.53;10.80;;;;;;;;;;4355599;32;319267;-80
2023/04/11 08:29:09;;;;;;;13.60;10.67;;;;;;;;;;4351064;32;319118;-80
2023/04/11 08:31:36;;;;;;;14.47;9.60;;;;;;;;;;4367963;32;319404;-81
2023/04/11 08:34:03;;;;;;;14.63;10.77;;;;;;;;;;4354634;32;318252;-82
2023/04/11 08:36:30;;;;;;;11.27;10.03;;;;;;;;;;4355382;32;319140;-80
2023/04/11 08:38:59;;;;;;;16.07;11.67;;;;;;;;;;4333132;33;318653;-80
2023/04/11 08:41:29;;;;;;;12.57;9.37;;;;;;;;;;4337052;32;319194;-80
2023/04/11 08:43:56;;;;;;;8.60;7.70;;;;;;;;;;4337966;32;318255;-80
2023/04/11 08:46:23;;;;;;;14.47;11.03;;;;;;;;;;4338072;32;418287;-80
2023/04/11 08:48:50;;;;;;;13.97;12.07;;;;;;;;;;4349574;32;333373;-80
2023/04/11 08:51:21;;;;;;;15.30;12.90;;;;;;;;;;4340895;32;319256;-81
2023/04/11 08:53:49;;;;;;;11.30;9.47;;;;;;;;;;4351097;32;319691;-80
2023/04/11 08:56:16;;;;;;;15.00;10.33;;;;;;;;;;4341962;32;318409;-80
2023/04/11 08:58:45;;;;;;;10.47;9.13;;;;;;;;;;4351748;32;319229;-79
2023/04/11 09:01:25;;;;;;;21.43;16.13;;;;;;;;;;4341573;32;318036;-80
2023/04/11 09:03:52;;;;;;;10.43;9.00;;;;;;;;;;4351622;32;319587;-83
2023/04/11 09:06:19;;;;;;;13.23;9.87;;;;;;;;;;4341267;32;318552;-81
2023/04/11 09:08:46;;;;;;;10.60;9.00;;;;;;;;;;4351356;32;318414;-83
2023/04/11 09:11:13;;;;;;;19.03;12.63;;;;;;;;;;4341454;32;318064;-84
2023/04/11 09:13:39;;;;;;;13.03;9.83;;;;;;;;;;4353374;32;319267;-80
2023/04/11 09:16:11;;;;;;;10.40;9.10;;;;;;;;;;4340710;32;331822;-77
2023/04/11 09:18:38;;;;;;;17.60;13.33;;;;;;;;;;4350617;32;318484;-78
2023/04/11 09:21:07;;;;;;;15.30;12.43;;;;;;;;;;4340615;32;319363;-76
2023/04/11 09:23:34;;;;;;;19.23;14.70;;;;;;;;;;4351605;32;319395;-78
2023/04/11 09:26:02;;;;;;;15.03;13.43;;;;;;;;;;4342811;32;318671;-77
2023/04/11 09:28:41;;;;;;;15.23;12.50;;;;;;;;;;4351492;32;318503;-79
2023/04/11 09:31:11;;;;;;;15.37;12.93;;;;;;;;;;4342179;32;319618;-79
2023/04/11 09:33:38;;;;;;;14.50;12.57;;;;;;;;;;4351370;32;319140;-78
2023/04/11 09:39:17;;;;;;;13.40;12.00;;;;;;;;;;4343532;32;319391;-83
2023/04/11 09:41:45;;;;;;;15.50;12.10;;;;;;;;;;4351288;32;319297;-82
2023/04/11 09:44:12;;;;;;;15.10;11.10;;;;;;;;;;4338691;32;319565;-83
2023/04/11 09:49:42;;;;;;;22.07;16.93;;;;;;;;;;4318239;32;389820;-81
2023/04/11 09:52:08;;;;;;;39.47;29.17;;;;;;;;;;4340224;32;319347;-81
2023/04/11 09:54:36;;;;;;;17.27;13.50;;;;;;;;;;4350144;32;319242;-79
2023/04/11 09:57:05;;;;;;;29.33;21.33;;;;;;;;;;4340934;32;319193;-79
2023/04/11 09:59:35;;;;;;;17.00;13.73;;;;;;;;;;4351401;32;319294;-79
2023/04/11 10:02:03;;;;;;;24.90;17.33;;;;;;;;;;4342224;32;319665;-79
2023/04/11 10:04:33;;;;;;;32.50;24.77;;;;;;;;;;4350776;32;319855;-79
2023/04/11 10:07:07;;;;;;;35.73;25.43;;;;;;;;;;4342727;32;319291;-79
2023/04/11 10:09:38;;;;;;;36.60;26.80;;;;;;;;;;4351050;32;318814;-80
2023/04/11 10:12:06;;;;;;;28.77;19.60;;;;;;;;;;4341302;32;344747;-79
2023/04/11 10:14:43;;;;;;;17.30;12.53;;;;;;;;;;4352903;32;318607;-79
2023/04/11 10:17:20;;;;;;;16.33;14.60;;;;;;;;;;4341607;32;318764;-79
2023/04/11 10:19:49;;;;;;;18.57;13.60;;;;;;;;;;4351192;32;319455;-80
2023/04/11 10:22:49;;;;;;;18.20;15.37;;;;;;;;;;4340846;32;319360;-80
2023/04/11 10:25:16;;;;;;;15.17;13.50;;;;;;;;;;4340825;32;319478;-80
2023/04/11 10:27:47;;;;;;;13.53;12.17;;;;;;;;;;4350354;32;318890;-80
2023/04/11 10:30:14;;;;;;;15.47;13.70;;;;;;;;;;4334298;32;318987;-77
2023/04/11 10:33:12;;;;;;;17.63;14.33;;;;;;;;;;4345651;32;319396;-80
2023/04/11 10:35:57;;;;;;;17.27;14.20;;;;;;;;;;4334075;32;418502;-78
2023/04/11 10:38:48;;;;;;;20.05;11.82;;;;;;;;;;4324972;32;419207;-78
2023/04/11 10:41:26;;;;;;;14.67;13.17;;;;;;;;;;4327239;32;319549;-77
2023/04/11 10:44:14;;;;;;;14.50;13.05;;;;;;;;;;4335812;32;318930;-77
2023/04/11 10:46:46;;;;;;;14.07;12.57;;;;;;;;;;4333530;32;420026;-77
2023/04/11 10:49:32;;;;;;;16.23;14.57;;;;;;;;;;4341764;32;318603;-77
2023/04/11 10:52:17;;;;;;;14.17;12.77;;;;;;;;;;4326139;32;318947;-78
2023/04/11 10:54:44;;;;;;;13.53;11.33;;;;;;;;;;4335982;32;319367;-75
2023/04/11 10:57:11;;;;;;;12.17;10.90;;;;;;;;;;4323936;32;319056;-75
2023/04/11 10:59:56;;;;;;;14.25;12.75;;;;;;;;;;4334139;32;319705;-78
2023/04/11 11:02:38;;;;;;;13.73;10.57;;;;;;;;;;4328069;32;421157;-81
2023/04/11 11:05:27;;;;;;;16.15;12.63;;;;;;;;;;4334365;32;319310;-78
2023/04/11 11:07:54;;;;;;;12.50;8.13;;;;;;;;;;4332480;32;342660;-79
2023/04/11 11:10:41;;;;;;;11.40;10.32;;;;;;;;;;4324898;32;317986;-79
2023/04/11 11:13:09;;;;;;;11.63;9.33;;;;;;;;;;4326366;32;319491;-79
2023/04/11 11:15:37;;;;;;;11.02;9.07;;;;;;;;;;4346978;32;317887;-77
2023/04/11 11:18:07;;;;;;;10.77;8.48;;;;;;;;;;4323245;32;333815;-78
2023/04/11 11:20:36;;;;;;;9.98;8.95;;;;;;;;;;4347007;32;318438;-79
2023/04/11 11:23:04;;;;;;;10.23;8.93;;;;;;;;;;4310655;32;317137;-77
2023/04/11 11:25:32;;;;;;;16.90;11.85;;;;;;;;;;4335663;32;327015;-79
2023/04/11 11:28:03;;;;;;;11.95;10.63;;;;;;;;;;4333634;32;319466;-79
2023/04/11 11:30:30;;;;;;;12.68;10.98;;;;;;;;;;4347661;32;319251;-82
2023/04/11 11:32:57;;;;;;;10.82;9.63;;;;;;;;;;4337732;32;320005;-81
2023/04/11 11:35:24;;;;;;;15.73;10.10;;;;;;;;;;4347996;32;317504;-81
2023/04/11 11:37:53;;;;;;;11.88;10.20;;;;;;;;;;4349657;32;319721;-80
2023/04/11 11:40:24;;;;;;;12.23;9.48;;;;;;;;;;4339471;32;319303;-80
2023/04/11 11:42:52;;;;;;;11.07;9.77;;;;;;;;;;4349775;32;318421;-80
2023/04/11 11:45:20;;;;;;;10.00;8.98;;;;;;;;;;4332815;32;317748;-83
2023/04/11 11:47:49;;;;;;;8.75;7.57;;;;;;;;;;4349625;32;318333;-81
2023/04/11 11:50:26;;;;;;;9.13;7.47;;;;;;;;;;4339111;32;316443;-80
2023/04/11 11:52:55;;;;;;;9.23;7.65;;;;;;;;;;4350295;32;317413;-79
2023/04/11 11:55:33;;;;;;;7.72;6.90;;;;;;;;;;4337296;32;417276;-78
2023/04/11 11:58:02;;;;;;;10.27;7.95;;;;;;;;;;4341630;32;317384;-80
2023/04/11 12:00:30;;;;;;;10.57;8.65;;;;;;;;;;4347716;32;318211;-81
2023/04/11 12:02:59;;;;;;;11.90;9.93;;;;;;;;;;4332073;32;352588;-79
2023/04/11 12:05:28;;;;;;;11.30;9.60;;;;;;;;;;4339214;32;317576;-79
2023/04/11 12:07:58;;;;;;;11.20;9.20;;;;;;;;;;4338444;32;317522;-79
2023/04/11 12:10:36;;;;;;;12.48;10.50;;;;;;;;;;4315497;32;419109;-78
2023/04/11 12:13:10;;;;;;;10.00;9.00;;;;;;;;;;4329227;32;318511;-78
2023/04/11 12:15:43;;;;;;;15.00;10.70;;;;;;;;;;4352683;32;318149;-78
2023/04/11 12:18:10;;;;;;;12.48;9.38;;;;;;;;;;4342989;32;319322;-78
2023/04/11 12:20:37;;;;;;;14.38;10.43;;;;;;;;;;4338400;32;318207;-80
2023/04/11 12:23:05;;;;;;;13.00;10.87;;;;;;;;;;4333476;32;345666;-76
2023/04/11 12:25:32;;;;;;;11.07;9.80;;;;;;;;;;4353028;32;318720;-80
2023/04/11 12:27:59;;;;;;;11.05;9.93;;;;;;;;;;4343938;32;317913;-80
2023/04/11 12:30:26;;;;;;;12.48;11.00;;;;;;;;;;4352683;32;318360;-79
2023/04/11 12:32:53;;;;;;;12.88;11.12;;;;;;;;;;4360640;32;318256;-77
2023/04/11 12:35:19;;;;;;;16.02;10.65;;;;;;;;;;4374307;32;318870;-78
2023/04/11 12:37:46;;;;;;;11.02;8.70;;;;;;;;;;4374541;32;317956;-76
2023/04/11 12:40:16;;;;;;;11.88;10.40;;;;;;;;;;4359338;32;317424;-78
2023/04/11 12:42:44;;;;;;;15.35;11.12;;;;;;;;;;4355009;32;319434;-78
2023/04/11 12:45:12;;;;;;;16.50;13.35;;;;;;;;;;4342049;32;319480;-78
2023/04/11 12:47:39;;;;;;;10.52;9.38;;;;;;;;;;4348863;32;319518;-79
2023/04/11 12:50:07;;;;;;;10.07;8.50;;;;;;;;;;4332745;32;318437;-77
2023/04/11 12:52:34;;;;;;;11.20;9.52;;;;;;;;;;4343976;32;318062;-79
2023/04/11 12:55:01;;;;;;;11.00;9.85;;;;;;;;;;4338697;32;318423;-81
2023/04/11 12:57:29;;;;;;;10.80;8.35;;;;;;;;;;4349696;32;317865;-79
2023/04/11 12:59:56;;;;;;;12.60;10.48;;;;;;;;;;4339688;32;317797;-79
2023/04/11 13:02:23;;;;;;;13.32;11.93;;;;;;;;;;4322217;32;420052;-79
2023/04/11 13:04:52;;;;;;;10.35;9.30;;;;;;;;;;4353067;32;319420;-79
2023/04/11 13:07:19;;;;;;;10.30;9.30;;;;;;;;;;4342555;32;318358;-79
2023/04/11 13:09:46;;;;;;;11.25;10.15;;;;;;;;;;4353706;32;318784;-79
2023/04/11 13:12:13;;;;;;;15.05;11.23;;;;;;;;;;4335300;32;319755;-76
2023/04/11 13:14:42;;;;;;;13.23;9.93;;;;;;;;;;4332789;32;319318;-80
2023/04/11 13:17:09;;;;;;;15.30;11.18;;;;;;;;;;4326661;32;343501;-78
2023/04/11 13:19:35;;;;;;;11.35;10.13;;;;;;;;;;4352674;32;331592;-81
2023/04/11 13:22:02;;;;;;;9.63;7.85;;;;;;;;;;4343524;32;319520;-81
2023/04/11 13:24:30;;;;;;;12.30;11.00;;;;;;;;;;4352900;32;317496;-80
2023/04/11 13:26:57;;;;;;;13.07;10.43;;;;;;;;;;4343502;32;318745;-80
2023/04/11 13:29:25;;;;;;;12.30;10.98;;;;;;;;;;4353087;32;318842;-78
2023/04/11 13:31:55;;;;;;;11.70;9.90;;;;;;;;;;4355430;32;318863;-81
2023/04/11 13:34:23;;;;;;;12.80;10.25;;;;;;;;;;4343651;32;416977;-81
2023/04/11 13:36:50;;;;;;;11.65;9.68;;;;;;;;;;4355171;32;349214;-80
2023/04/11 13:39:18;;;;;;;12.60;10.45;;;;;;;;;;4344924;32;318054;-80
2023/04/11 13:41:46;;;;;;;14.77;11.10;;;;;;;;;;4354213;32;318771;-80
2023/04/11 13:44:14;;;;;;;14.40;10.63;;;;;;;;;;4342907;32;318903;-81
2023/04/11 13:46:42;;;;;;;9.82;8.80;;;;;;;;;;4353373;32;318788;-81
2023/04/11 13:49:11;;;;;;;10.93;9.45;;;;;;;;;;4343059;32;315634;-82
2023/04/11 13:51:39;;;;;;;12.27;11.07;;;;;;;;;;4352289;32;317835;-79
2023/04/11 13:54:07;;;;;;;13.40;10.43;;;;;;;;;;4341308;32;318927;-79
2023/04/11 13:56:34;;;;;;;10.82;9.23;;;;;;;;;;4349969;32;318602;-78
2023/04/11 13:59:04;;;;;;;12.30;9.23;;;;;;;;;;4342286;32;317850;-79
2023/04/11 14:01:32;;;;;;;12.18;9.80;;;;;;;;;;4353568;32;317600;-78
2023/04/11 14:04:02;;;;;;;11.20;10.00;;;;;;;;;;4344782;32;318004;-79
2023/04/11 14:06:31;;;;;;;10.68;9.55;;;;;;;;;;4355062;32;331791;-79
2023/04/11 14:08:58;;;;;;;12.32;10.32;;;;;;;;;;4342582;32;380198;-79
2023/04/11 14:11:26;;;;;;;10.68;9.52;;;;;;;;;;4354967;32;319054;-79
2023/04/11 14:13:53;;;;;;;14.13;11.70;;;;;;;;;;4355460;32;318842;-79
2023/04/11 14:16:21;;;;;;;14.60;12.00;;;;;;;;;;4345052;32;318942;-79
2023/04/11 14:18:48;;;;;;;11.65;9.95;;;;;;;;;;4353548;32;318906;-79
2023/04/11 14:28:01;;;;;;;14.45;10.00;;;;;;;;;;4338303;32;387214;-78
2023/04/11 14:30:29;;;;;;;9.83;8.83;;;;;;;;;;4350995;32;318785;-77
2023/04/11 14:33:13;;;;;;;11.20;10.10;;;;;;;;;;4341190;32;315985;-80
2023/04/11 14:38:42;;;;;;;12.48;11.27;;;;;;;;;;4296470;32;389109;-80
2023/04/11 14:41:16;;;;;;;14.60;11.20;;;;;;;;;;4329190;32;318682;-79
2023/04/11 14:43:45;;;;;;;14.13;12.63;;;;;;;;;;4352325;32;318777;-79
2023/04/11 14:46:12;;;;;;;12.18;10.48;;;;;;;;;;4341423;32;318645;-79
2023/04/11 14:48:40;;;;;;;14.82;12.60;;;;;;;;;;4354019;32;318814;-80
2023/04/11 14:51:08;;;;;;;11.75;10.55;;;;;;;;;;4342450;32;317563;-81
2023/04/11 14:53:36;;;;;;;11.25;9.73;;;;;;;;;;4352991;32;319106;-82
2023/04/11 14:56:05;;;;;;;17.12;11.48;;;;;;;;;;4343085;32;317908;-81
2023/04/11 14:58:32;;;;;;;15.73;12.85;;;;;;;;;;4352474;32;318871;-80
2023/04/11 15:01:05;;;;;;;21.98;15.82;;;;;;;;;;4344304;32;318857;-82
2023/04/11 15:03:33;;;;;;;12.65;10.13;;;;;;;;;;4355155;32;318646;-78
2023/04/11 15:06:01;;;;;;;14.50;12.87;;;;;;;;;;4342900;32;319115;-79
2023/04/11 15:08:28;;;;;;;12.68;11.38;;;;;;;;;;4356562;32;318483;-77
2023/04/11 15:10:56;;;;;;;13.13;11.70;;;;;;;;;;4357832;32;317445;-76
2023/04/11 15:13:25;;;;;;;14.55;13.02;;;;;;;;;;4353444;32;418691;-79
2023/04/11 15:15:53;;;;;;;17.45;15.13;;;;;;;;;;4361813;32;318831;-78